Estación Meteorológica Peña el Pijo (Robertgarden) [ 02/03/23 04:11:47 CET ]

Fecha Hora Presion(HPa) Temp (°C) Humedad % Rocio (°C) Viento ( m/s) Direccion Lluvia 1Hora(mm) Lluvia 24H(mm) LLuvia Total(mm)
2010-Feb-13 01:01:17 997.300 -0.7 77 -4.2         76.66
2010-Feb-13 02:03:20 996.700 -1.4 82 -4.1         76.66
2010-Feb-13 03:01:13 996.500 -1.9 85 -4.1         76.66
2010-Feb-13 04:01:14 996.100 -2.1 88 -3.8 0.8 NNE     76.66
2010-Feb-13 05:01:12 995.800 -2.2 89 -3.8         76.66
2010-Feb-13 06:01:13 995.800 -2.2 90 -3.6         76.66
2010-Feb-13 07:01:13 995.600 -2.2 90 -3.6         76.66
2010-Feb-13 08:01:18 995.300 -2.1 90 -3.5         76.66
2010-Feb-13 09:01:14 996.200 -1.7 89 -3.3         76.66
2010-Feb-13 10:01:11 996.200 -1.3 89 -2.9         76.66
2010-Feb-13 11:01:18 996.000 -0.1 84 -2.5         76.66
2010-Feb-13 12:01:14 995.800 0.2 85 -2.0         76.66
2010-Feb-13 13:01:17 995.900 -0.1 87 -2.0         76.66
2010-Feb-13 14:01:12 995.400 0.2 87 -1.7         76.66
2010-Feb-13 15:01:13 995.200 0.6 84 -1.8         76.66
2010-Feb-13 16:01:16 995.200 0.9 84 -1.6         76.66
2010-Feb-13 17:01:11 995.100 0.3 85 -1.9         76.66
2010-Feb-13 18:01:14 995.500 -0.3 86 -2.3         76.66
2010-Feb-13 19:01:14 996.200 -1.1 88 -2.8         76.66
2010-Feb-13 20:01:13 997.100 -1.1 88 -2.8         76.66
2010-Feb-13 21:01:13 997.900 -1.2 89 -2.8         76.66
2010-Feb-13 22:01:19 998.000 -1.2 90 -2.6         76.66
2010-Feb-13 23:01:13 998.500 -1.3 90 -2.7         76.66

Temperatura Máxima:    Temperatura Mínima:-2°
Presión Máxima:998.500 Hpa    Presión Mínima:995.100 Hpa


Volver